createdAt,value
2023-04-20T00:01:44.084Z,1.40
2023-04-20T00:04:10.985Z,1.38
2023-04-20T00:06:38.240Z,1.60
2023-04-20T00:09:05.556Z,1.55
2023-04-20T00:11:32.374Z,1.50
2023-04-20T00:13:59.338Z,1.05
2023-04-20T00:16:26.255Z,1.38
2023-04-20T00:18:53.157Z,1.23
2023-04-20T00:21:24.031Z,1.23
2023-04-20T00:23:51.827Z,1.35
2023-04-20T00:26:19.314Z,1.23
2023-04-20T00:28:46.097Z,1.33
2023-04-20T00:31:12.973Z,0.95
2023-04-20T00:33:39.787Z,1.33
2023-04-20T00:36:06.828Z,1.10
2023-04-20T00:38:33.651Z,1.15
2023-04-20T00:41:00.631Z,1.10
2023-04-20T00:43:28.085Z,1.17
2023-04-20T00:45:55.135Z,0.93
2023-04-20T00:48:22.570Z,1.20
2023-04-20T00:50:50.500Z,1.20
2023-04-20T00:53:18.430Z,1.42
2023-04-20T00:55:45.442Z,1.02
2023-04-20T00:58:12.801Z,1.02
2023-04-20T01:00:40.756Z,1.20
2023-04-20T01:03:08.813Z,1.58
2023-04-20T01:05:36.262Z,0.80
2023-04-20T01:08:03.178Z,1.27
2023-04-20T01:10:30.595Z,1.00
2023-04-20T01:12:57.432Z,1.40
2023-04-20T01:15:24.464Z,1.20
2023-04-20T01:17:52.577Z,1.13
2023-04-20T01:20:20.477Z,1.13
2023-04-20T01:22:53.750Z,1.75
2023-04-20T01:25:21.880Z,1.10
2023-04-20T01:27:48.800Z,0.68
2023-04-20T01:30:17.216Z,1.13
2023-04-20T01:32:44.576Z,0.90
2023-04-20T01:35:11.696Z,0.90
2023-04-20T01:37:40.264Z,1.30
2023-04-20T01:40:10.032Z,0.98
2023-04-20T01:42:37.007Z,1.25
2023-04-20T01:45:06.230Z,1.02
2023-04-20T01:47:34.149Z,0.90
2023-04-20T01:50:01.189Z,0.82
2023-04-20T01:52:28.074Z,0.80
2023-04-20T01:54:54.952Z,0.77
2023-04-20T01:57:21.808Z,1.45
2023-04-20T01:59:49.087Z,0.90
2023-04-20T02:02:15.992Z,1.40
2023-04-20T02:04:42.797Z,1.08
2023-04-20T02:07:09.808Z,1.00
2023-04-20T02:09:36.654Z,1.05
2023-04-20T02:12:03.842Z,0.82
2023-04-20T02:14:30.847Z,1.10
2023-04-20T02:16:57.665Z,1.00
2023-04-20T02:19:24.544Z,0.82
2023-04-20T02:21:51.338Z,1.30
2023-04-20T02:24:18.150Z,0.95
2023-04-20T02:26:44.974Z,0.85
2023-04-20T02:29:11.843Z,1.35
2023-04-20T02:31:38.760Z,1.08
2023-04-20T02:34:06.582Z,1.15
2023-04-20T02:36:33.401Z,0.85
2023-04-20T02:39:00.231Z,0.82
2023-04-20T02:41:27.081Z,0.82
2023-04-20T02:43:53.920Z,0.88
2023-04-20T02:46:21.099Z,0.88
2023-04-20T02:48:48.041Z,1.15
2023-04-20T02:51:14.962Z,1.13
2023-04-20T02:53:41.773Z,1.17
2023-04-20T02:56:08.548Z,1.30
2023-04-20T02:58:36.064Z,1.45
2023-04-20T03:01:04.254Z,1.98
2023-04-20T03:03:31.831Z,1.65
2023-04-20T03:05:58.820Z,1.90
2023-04-20T03:08:25.762Z,2.45
2023-04-20T03:10:52.663Z,1.42
2023-04-20T03:13:19.472Z,2.13
2023-04-20T03:15:46.348Z,1.50
2023-04-20T03:18:13.286Z,1.50
2023-04-20T03:20:40.503Z,1.70
2023-04-20T03:23:07.333Z,1.27
2023-04-20T03:25:34.157Z,1.40
2023-04-20T03:28:00.952Z,1.67
2023-04-20T03:30:27.902Z,1.60
2023-04-20T03:32:54.713Z,1.77
2023-04-20T03:35:21.542Z,1.30
2023-04-20T03:37:48.414Z,1.70
2023-04-20T03:40:15.222Z,1.52
2023-04-20T03:42:42.100Z,1.45
2023-04-20T03:45:09.627Z,2.03
2023-04-20T03:47:36.530Z,1.27
2023-04-20T03:50:04.262Z,1.67
2023-04-20T03:52:31.121Z,1.88
2023-04-20T03:54:57.981Z,1.40
2023-04-20T03:57:24.899Z,1.58
2023-04-20T03:59:51.766Z,1.45
2023-04-20T04:02:18.914Z,1.80
2023-04-20T04:04:45.946Z,1.50
2023-04-20T04:07:12.796Z,1.60
2023-04-20T04:09:39.697Z,1.20
2023-04-20T04:12:07.068Z,1.52
2023-04-20T04:14:34.940Z,1.17
2023-04-20T04:17:01.986Z,1.23
2023-04-20T04:19:28.791Z,1.27
2023-04-20T04:21:55.631Z,0.90
2023-04-20T04:24:22.941Z,1.08
2023-04-20T04:26:49.853Z,1.08
2023-04-20T04:29:16.899Z,1.13
2023-04-20T04:31:44.063Z,0.73
2023-04-20T04:34:10.868Z,0.60
2023-04-20T04:36:37.780Z,1.15
2023-04-20T04:39:04.640Z,0.70
2023-04-20T04:41:31.607Z,1.08
2023-04-20T04:43:59.593Z,0.68
2023-04-20T04:46:27.777Z,0.60
2023-04-20T04:48:56.528Z,1.00
2023-04-20T04:51:23.437Z,1.10
2023-04-20T04:53:50.267Z,0.73
2023-04-20T04:56:18.463Z,0.80
2023-04-20T04:58:47.988Z,1.15
2023-04-20T05:01:14.839Z,1.15
2023-04-20T05:03:41.976Z,0.80
2023-04-20T05:06:08.986Z,1.00
2023-04-20T05:08:35.888Z,0.80
2023-04-20T05:11:02.807Z,0.82
2023-04-20T05:13:29.937Z,0.80
2023-04-20T05:15:56.831Z,0.80
2023-04-20T05:18:23.692Z,1.08
2023-04-20T05:20:50.602Z,0.70
2023-04-20T05:23:17.406Z,0.70
2023-04-20T05:25:44.358Z,1.23
2023-04-20T05:28:11.235Z,0.93
2023-04-20T05:30:41.040Z,1.63
2023-04-20T05:33:08.581Z,0.98
2023-04-20T05:35:36.099Z,0.90
2023-04-20T05:38:06.332Z,1.30
2023-04-20T05:40:35.048Z,1.05
2023-04-20T05:43:02.350Z,1.33
2023-04-20T05:45:29.424Z,1.30
2023-04-20T05:47:57.715Z,1.52
2023-04-20T05:50:25.848Z,1.33
2023-04-20T05:52:53.295Z,1.30
2023-04-20T05:55:22.440Z,1.17
2023-04-20T05:57:51.974Z,1.48
2023-04-20T06:00:20.236Z,1.35
2023-04-20T06:02:47.528Z,0.88
2023-04-20T06:05:14.740Z,1.40
2023-04-20T06:07:41.622Z,1.35
2023-04-20T06:10:09.044Z,1.35
2023-04-20T06:12:36.300Z,2.05
2023-04-20T06:15:04.800Z,2.45
2023-04-20T06:17:31.746Z,2.70
2023-04-20T06:19:58.989Z,3.10
2023-04-20T06:22:25.970Z,1.92
2023-04-20T06:24:52.863Z,1.70
2023-04-20T06:27:19.655Z,2.28
2023-04-20T06:29:46.450Z,1.75
2023-04-20T06:32:13.250Z,1.50
2023-04-20T06:34:40.073Z,2.25
2023-04-20T06:37:07.737Z,1.83
2023-04-20T06:39:35.725Z,1.80
2023-04-20T06:42:02.861Z,2.03
2023-04-20T06:44:29.699Z,1.67
2023-04-20T06:46:56.677Z,1.77
2023-04-20T06:49:23.597Z,1.60
2023-04-20T06:51:50.681Z,1.73
2023-04-20T06:54:17.592Z,1.42
2023-04-20T06:56:44.502Z,3.28
2023-04-20T06:59:11.497Z,1.45
2023-04-20T07:01:38.437Z,1.70
2023-04-20T07:04:08.561Z,1.55
2023-04-20T07:06:35.643Z,2.13
2023-04-20T07:09:02.718Z,1.50
2023-04-20T07:11:29.518Z,1.20
2023-04-20T07:13:56.679Z,1.52
2023-04-20T07:16:23.590Z,1.73
2023-04-20T07:18:50.457Z,1.70
2023-04-20T07:21:17.341Z,1.80
2023-04-20T07:23:45.206Z,1.75
2023-04-20T07:26:12.311Z,2.15
2023-04-20T07:28:39.182Z,1.50
2023-04-20T07:31:06.155Z,1.40
2023-04-20T07:33:35.622Z,1.42
2023-04-20T07:36:02.540Z,1.85
2023-04-20T07:38:29.365Z,2.35
2023-04-20T07:40:56.142Z,1.65
2023-04-20T07:43:23.113Z,1.55
2023-04-20T07:45:49.938Z,1.67
2023-04-20T07:48:16.836Z,2.63
2023-04-20T07:50:43.773Z,1.80
2023-04-20T07:53:10.732Z,2.20
2023-04-20T07:55:37.599Z,2.00
2023-04-20T07:58:04.547Z,2.00
2023-04-20T08:00:31.456Z,1.60
2023-04-20T08:02:58.434Z,1.98
2023-04-20T08:05:25.549Z,1.75
2023-04-20T08:07:52.562Z,2.10
2023-04-20T08:10:19.552Z,2.08
2023-04-20T08:12:51.977Z,1.48
2023-04-20T08:15:20.052Z,2.15
2023-04-20T08:17:47.056Z,1.67
2023-04-20T08:20:13.927Z,2.65
2023-04-20T08:22:40.831Z,2.28
2023-04-20T08:25:07.993Z,2.00
2023-04-20T08:27:34.945Z,1.80
2023-04-20T08:30:04.442Z,2.28
2023-04-20T08:32:31.546Z,2.20
2023-04-20T08:34:58.461Z,1.80
2023-04-20T08:37:25.997Z,1.85
2023-04-20T08:39:53.224Z,2.00
2023-04-20T08:42:21.036Z,2.00
2023-04-20T08:44:47.880Z,1.98
2023-04-20T08:47:14.852Z,1.83
2023-04-20T08:49:44.161Z,2.22
2023-04-20T08:52:12.069Z,1.98
2023-04-20T08:54:46.089Z,2.10
2023-04-20T08:57:20.160Z,2.58
2023-04-20T08:59:46.974Z,2.13
2023-04-20T09:02:14.342Z,2.25
2023-04-20T09:04:41.473Z,2.00
2023-04-20T09:07:18.715Z,2.35
2023-04-20T09:09:59.266Z,2.03
2023-04-20T09:12:26.477Z,2.53
2023-04-20T09:14:54.053Z,2.70
2023-04-20T09:17:39.345Z,2.28
2023-04-20T09:20:07.178Z,1.85
2023-04-20T09:22:36.978Z,1.98
2023-04-20T09:25:32.924Z,2.72
2023-04-20T09:28:01.419Z,2.70
2023-04-20T09:30:42.681Z,2.35
2023-04-20T09:33:12.111Z,2.03
2023-04-20T09:35:40.580Z,3.00
2023-04-20T09:38:08.875Z,2.25
2023-04-20T09:40:36.241Z,2.42
2023-04-20T09:43:24.467Z,2.78
2023-04-20T09:45:54.541Z,2.15
2023-04-20T09:48:21.944Z,2.92
2023-04-20T09:50:50.973Z,2.40
2023-04-20T09:53:19.620Z,2.38
2023-04-20T09:55:51.289Z,2.72
2023-04-20T09:58:23.762Z,3.53
2023-04-20T10:00:51.473Z,3.20
2023-04-20T10:03:20.237Z,2.63
2023-04-20T10:05:47.584Z,3.22
2023-04-20T10:08:14.589Z,3.40
2023-04-20T10:10:47.363Z,3.35
2023-04-20T10:13:15.212Z,3.47
2023-04-20T10:15:42.884Z,3.17
2023-04-20T10:18:25.645Z,3.05
2023-04-20T10:21:06.962Z,3.28
2023-04-20T10:23:34.040Z,3.22
2023-04-20T10:26:03.488Z,3.42
2023-04-20T10:28:41.630Z,3.83
2023-04-20T10:31:12.966Z,2.95
2023-04-20T10:33:54.079Z,3.45
2023-04-20T10:36:32.851Z,3.72
2023-04-20T10:39:02.745Z,2.88
2023-04-20T10:41:29.641Z,3.95
2023-04-20T10:44:07.839Z,2.72
2023-04-20T10:46:34.792Z,2.70
2023-04-20T10:49:02.145Z,2.53
2023-04-20T10:51:29.260Z,2.42
2023-04-20T10:54:06.764Z,2.97
2023-04-20T10:56:38.240Z,2.67
2023-04-20T10:59:17.064Z,2.40
2023-04-20T11:01:45.200Z,2.92
2023-04-20T11:04:14.113Z,2.42
2023-04-20T11:06:44.384Z,2.15
2023-04-20T11:09:26.611Z,2.55
2023-04-20T11:12:03.974Z,2.53
2023-04-20T11:14:52.006Z,2.55
2023-04-20T11:17:19.445Z,3.03
2023-04-20T11:19:46.930Z,2.92
2023-04-20T11:22:25.980Z,2.88
2023-04-20T11:25:06.837Z,2.60
2023-04-20T11:27:34.848Z,2.90
2023-04-20T11:30:05.879Z,2.22
2023-04-20T11:32:34.103Z,2.58
2023-04-20T11:35:06.877Z,2.92
2023-04-20T11:37:46.306Z,3.70
2023-04-20T11:40:13.521Z,3.28
2023-04-20T11:42:40.763Z,2.97
2023-04-20T11:45:08.479Z,3.10
2023-04-20T11:47:35.312Z,3.38
2023-04-20T11:50:02.227Z,2.97
2023-04-20T11:52:29.109Z,3.35
2023-04-20T11:54:56.410Z,3.00
2023-04-20T11:57:24.301Z,2.95
2023-04-20T11:59:51.142Z,3.25
2023-04-20T12:02:18.432Z,2.75
2023-04-20T12:04:45.818Z,3.15
2023-04-20T12:07:12.933Z,3.20
2023-04-20T12:09:40.407Z,3.13
2023-04-20T12:12:08.800Z,3.90
2023-04-20T12:14:35.891Z,3.30
2023-04-20T12:17:04.412Z,2.70
2023-04-20T12:19:31.914Z,2.22
2023-04-20T12:21:58.820Z,2.38
2023-04-20T12:24:26.176Z,2.40
2023-04-20T12:26:53.195Z,2.95
2023-04-20T12:29:22.660Z,2.30
2023-04-20T12:31:49.561Z,3.17
2023-04-20T12:34:16.486Z,2.80
2023-04-20T12:36:43.447Z,2.63
2023-04-20T12:39:11.852Z,3.22
2023-04-20T12:41:38.737Z,2.90
2023-04-20T12:44:07.215Z,2.80
2023-04-20T12:46:35.840Z,3.38
2023-04-20T12:49:03.194Z,3.38
2023-04-20T12:51:30.015Z,2.70
2023-04-20T12:53:56.830Z,3.05
2023-04-20T12:56:23.695Z,2.58
2023-04-20T12:58:50.475Z,2.80
2023-04-20T13:01:17.576Z,3.13
2023-04-20T13:03:44.617Z,2.97
2023-04-20T13:06:14.278Z,2.90
2023-04-20T13:08:41.559Z,2.38
2023-04-20T13:11:11.988Z,2.60
2023-04-20T13:13:40.245Z,2.63
2023-04-20T13:16:07.302Z,2.00
2023-04-20T13:18:34.830Z,2.03
2023-04-20T13:21:01.679Z,1.80
2023-04-20T13:23:28.515Z,2.58
2023-04-20T13:25:56.885Z,2.28
2023-04-20T13:28:24.723Z,2.33
2023-04-20T13:30:53.597Z,2.55
2023-04-20T13:33:20.533Z,2.80
2023-04-20T13:35:47.531Z,2.30
2023-04-20T13:38:14.450Z,2.58
2023-04-20T13:40:42.388Z,2.75
2023-04-20T13:43:09.218Z,2.40
2023-04-20T13:45:36.624Z,2.47
2023-04-20T13:48:03.617Z,3.08
2023-04-20T13:50:30.517Z,2.40
2023-04-20T13:52:58.242Z,3.50
2023-04-20T13:55:26.925Z,3.35
2023-04-20T13:57:54.086Z,2.60
2023-04-20T14:00:21.753Z,2.88
2023-04-20T14:02:48.602Z,2.83
2023-04-20T14:05:15.634Z,2.50
2023-04-20T14:07:42.475Z,2.63
2023-04-20T14:10:09.935Z,2.38
2023-04-20T14:12:36.889Z,2.60
2023-04-20T14:15:04.265Z,1.95
2023-04-20T14:17:31.357Z,2.20
2023-04-20T14:19:58.419Z,2.40
2023-04-20T14:22:25.716Z,3.53
2023-04-20T14:24:52.534Z,2.53
2023-04-20T14:27:19.487Z,2.47
2023-04-20T14:29:46.365Z,2.90
2023-04-20T14:32:13.253Z,2.47
2023-04-20T14:34:40.327Z,2.70
2023-04-20T14:37:07.625Z,2.33
2023-04-20T14:39:34.493Z,2.05
2023-04-20T14:42:01.392Z,2.20
2023-04-20T14:44:28.227Z,2.28
2023-04-20T14:46:57.067Z,2.55
2023-04-20T14:49:24.346Z,2.35
2023-04-20T14:51:51.223Z,2.58
2023-04-20T14:54:18.350Z,2.53
2023-04-20T14:56:45.489Z,1.90
2023-04-20T14:59:12.470Z,2.92
2023-04-20T15:01:43.414Z,1.90
2023-04-20T15:04:18.825Z,2.35
2023-04-20T15:06:46.040Z,2.45
2023-04-20T15:09:12.968Z,2.20
2023-04-20T15:11:39.783Z,2.80
2023-04-20T15:14:07.966Z,2.67
2023-04-20T15:16:34.996Z,2.50
2023-04-20T15:19:02.260Z,2.97
2023-04-20T15:21:29.098Z,2.88
2023-04-20T15:23:56.345Z,2.28
2023-04-20T15:26:23.236Z,2.40
2023-04-20T15:28:50.095Z,2.30
2023-04-20T15:31:18.691Z,1.95
2023-04-20T15:33:48.034Z,2.75
2023-04-20T15:36:18.649Z,2.25
2023-04-20T15:38:46.099Z,2.53
2023-04-20T15:41:12.912Z,2.55
2023-04-20T15:43:43.663Z,2.60
2023-04-20T15:46:10.839Z,3.38
2023-04-20T15:48:37.981Z,3.05
2023-04-20T15:51:04.821Z,3.17
2023-04-20T15:53:32.537Z,2.80
2023-04-20T15:55:59.377Z,3.15
2023-04-20T15:58:27.164Z,2.78
2023-04-20T16:00:54.103Z,3.25
2023-04-20T16:03:21.197Z,3.17
2023-04-20T16:05:48.125Z,3.13
2023-04-20T16:08:15.057Z,3.42
2023-04-20T16:10:41.944Z,2.78
2023-04-20T16:13:08.888Z,2.72
2023-04-20T16:15:35.948Z,3.03
2023-04-20T16:18:04.980Z,3.42
2023-04-20T16:20:31.913Z,3.13
2023-04-20T16:22:58.814Z,3.47
2023-04-20T16:25:25.884Z,3.25
2023-04-20T16:27:52.812Z,3.20
2023-04-20T16:30:20.083Z,2.97
2023-04-20T16:32:46.985Z,3.70
2023-04-20T16:35:14.110Z,3.25
2023-04-20T16:37:40.969Z,3.25
2023-04-20T16:40:11.474Z,3.45
2023-04-20T16:42:38.288Z,3.03
2023-04-20T16:45:05.601Z,2.65
2023-04-20T16:47:32.524Z,3.70
2023-04-20T16:49:59.428Z,3.75
2023-04-20T16:52:26.264Z,3.45
2023-04-20T16:54:53.118Z,3.05
2023-04-20T16:57:21.239Z,2.75
2023-04-20T16:59:48.092Z,2.70
2023-04-20T17:02:15.469Z,3.00
2023-04-20T17:04:42.554Z,3.20
2023-04-20T17:07:09.408Z,3.10
2023-04-20T17:09:36.590Z,3.28
2023-04-20T17:12:03.589Z,3.25
2023-04-20T17:14:32.242Z,3.00
2023-04-20T17:17:01.729Z,3.35
2023-04-20T17:19:30.749Z,3.38
2023-04-20T17:21:59.396Z,2.80
2023-04-20T17:24:26.221Z,3.28
2023-04-20T17:26:53.214Z,3.78
2023-04-20T17:29:20.231Z,3.33
2023-04-20T17:31:47.224Z,4.05
2023-04-20T17:34:14.225Z,2.88
2023-04-20T17:36:41.141Z,3.83
2023-04-20T17:39:08.089Z,3.50
2023-04-20T17:41:37.032Z,3.10
2023-04-20T17:44:04.042Z,3.20
2023-04-20T17:46:31.772Z,3.53
2023-04-20T17:49:01.021Z,3.67
2023-04-20T17:51:27.985Z,3.80
2023-04-20T17:53:54.837Z,3.38
2023-04-20T17:56:21.708Z,3.50
2023-04-20T17:58:49.074Z,3.50
2023-04-20T18:01:16.104Z,3.28
2023-04-20T18:03:43.692Z,3.42
2023-04-20T18:06:10.880Z,3.67
2023-04-20T18:08:37.743Z,3.15
2023-04-20T18:11:06.156Z,3.13
2023-04-20T18:13:32.994Z,3.10
2023-04-20T18:16:00.022Z,2.92
2023-04-20T18:18:26.839Z,3.05
2023-04-20T18:20:54.009Z,3.38
2023-04-20T18:23:20.987Z,4.25
2023-04-20T18:25:47.956Z,3.45
2023-04-20T18:28:14.811Z,3.17
2023-04-20T18:30:42.232Z,3.05
2023-04-20T18:33:09.102Z,3.03
2023-04-20T18:35:36.187Z,3.30
2023-04-20T18:38:04.909Z,3.80
2023-04-20T18:40:31.749Z,3.53
2023-04-20T18:42:58.724Z,3.10
2023-04-20T18:45:25.604Z,3.58
2023-04-20T18:47:52.469Z,3.30
2023-04-20T18:50:19.454Z,3.38
2023-04-20T18:52:46.417Z,3.60
2023-04-20T18:55:14.482Z,4.07
2023-04-20T18:57:41.329Z,3.80
2023-04-20T19:00:09.820Z,3.08
2023-04-20T19:02:36.894Z,4.30
2023-04-20T19:05:04.191Z,3.22
2023-04-20T19:07:31.052Z,3.90
2023-04-20T19:09:58.013Z,3.83
2023-04-20T19:12:24.929Z,3.45
2023-04-20T19:14:51.819Z,3.50
2023-04-20T19:17:18.630Z,3.28
2023-04-20T19:19:45.984Z,4.03
2023-04-20T19:22:12.878Z,3.53
2023-04-20T19:24:39.810Z,3.10
2023-04-20T19:27:06.916Z,4.13
2023-04-20T19:29:35.338Z,3.33
2023-04-20T19:32:02.288Z,3.60
2023-04-20T19:34:29.284Z,3.53
2023-04-20T19:36:56.196Z,3.70
2023-04-20T19:39:23.269Z,3.90
2023-04-20T19:41:50.112Z,3.65
2023-04-20T19:44:17.588Z,2.78
2023-04-20T19:46:44.674Z,3.45
2023-04-20T19:49:11.952Z,3.83
2023-04-20T19:51:38.851Z,3.47
2023-04-20T19:54:05.764Z,3.80
2023-04-20T19:56:33.764Z,3.88
2023-04-20T19:59:03.157Z,3.33
2023-04-20T20:01:30.033Z,2.92
2023-04-20T20:03:57.026Z,3.28
2023-04-20T20:06:24.200Z,3.15
2023-04-20T20:08:51.597Z,4.63
2023-04-20T20:11:18.668Z,3.50
2023-04-20T20:13:45.643Z,3.35
2023-04-20T20:16:12.542Z,3.20
2023-04-20T20:18:39.522Z,3.60
2023-04-20T20:21:06.733Z,3.60
2023-04-20T20:23:36.028Z,3.28
2023-04-20T20:26:03.210Z,3.72
2023-04-20T20:28:30.502Z,3.42
2023-04-20T20:30:57.402Z,3.25
2023-04-20T20:33:24.620Z,3.40
2023-04-20T20:35:52.544Z,3.50
2023-04-20T20:38:20.953Z,4.43
2023-04-20T20:40:50.532Z,3.85
2023-04-20T20:43:19.049Z,4.25
2023-04-20T20:45:47.205Z,4.32
2023-04-20T20:48:15.385Z,4.20
2023-04-20T20:50:42.236Z,3.88
2023-04-20T20:53:09.169Z,4.55
2023-04-20T20:55:36.062Z,3.53
2023-04-20T20:58:02.926Z,4.40
2023-04-20T21:00:29.964Z,4.55
2023-04-20T21:02:57.220Z,3.90
2023-04-20T21:05:24.322Z,4.57
2023-04-20T21:07:51.246Z,4.47
2023-04-20T21:10:18.179Z,4.55
2023-04-20T21:12:45.002Z,4.50
2023-04-20T21:15:12.051Z,4.10
2023-04-20T21:17:39.012Z,4.78
2023-04-20T21:20:09.428Z,4.95
2023-04-20T21:22:36.425Z,4.07
2023-04-20T21:25:03.795Z,4.57
2023-04-20T21:27:30.711Z,4.50
2023-04-20T21:29:57.679Z,4.93
2023-04-20T21:32:24.542Z,4.88
2023-04-20T21:34:52.254Z,4.70
2023-04-20T21:37:19.119Z,5.10
2023-04-20T21:39:46.103Z,4.95
2023-04-20T21:42:12.952Z,5.28
2023-04-20T21:44:42.880Z,5.35
2023-04-20T21:47:09.825Z,5.95
2023-04-20T21:49:36.621Z,5.20
2023-04-20T21:52:03.650Z,5.57
2023-04-20T21:54:31.195Z,5.30
2023-04-20T21:56:59.636Z,5.22
2023-04-20T21:59:26.578Z,6.28
2023-04-20T22:01:53.754Z,6.88
2023-04-20T22:04:20.804Z,5.82
2023-04-20T22:06:48.831Z,7.22
2023-04-20T22:09:17.285Z,7.28
2023-04-20T22:11:45.240Z,7.30
2023-04-20T22:14:12.103Z,7.97
2023-04-20T22:22:31.186Z,7.15
2023-04-20T22:24:58.856Z,7.80
2023-04-20T22:27:25.718Z,7.20
2023-04-20T22:29:52.878Z,7.13
2023-04-20T22:32:19.745Z,7.72
2023-04-20T22:34:46.633Z,7.97
2023-04-20T22:37:13.558Z,8.95
2023-04-20T22:39:40.412Z,8.75
2023-04-20T22:42:07.225Z,8.10
2023-04-20T22:44:34.058Z,9.55
2023-04-20T22:47:01.396Z,8.23
2023-04-20T22:49:28.430Z,9.73
2023-04-20T22:51:58.044Z,9.30
2023-04-20T22:54:25.354Z,9.02
2023-04-20T22:56:52.341Z,8.85
2023-04-20T22:59:19.876Z,8.75
2023-04-20T23:01:47.057Z,9.02
2023-04-20T23:04:13.993Z,9.02
2023-04-20T23:06:43.876Z,8.40
2023-04-20T23:09:12.459Z,8.82
2023-04-20T23:11:40.485Z,8.05
2023-04-20T23:14:08.717Z,8.38
2023-04-20T23:16:35.947Z,9.75
2023-04-20T23:19:02.861Z,8.60
2023-04-20T23:21:29.804Z,9.45
2023-04-20T23:23:57.749Z,9.15
2023-04-20T23:26:24.731Z,8.02
2023-04-20T23:28:52.428Z,8.85
2023-04-20T23:31:20.225Z,9.05
2023-04-20T23:33:47.698Z,8.73
2023-04-20T23:36:14.815Z,9.13
2023-04-20T23:38:41.951Z,9.75
2023-04-20T23:41:14.021Z,8.45
2023-04-20T23:43:41.352Z,9.23
2023-04-20T23:46:08.806Z,8.55
2023-04-20T23:48:35.843Z,8.52
2023-04-20T23:51:02.854Z,9.20
2023-04-20T23:53:29.773Z,8.80
2023-04-20T23:55:56.726Z,8.52
2023-04-20T23:58:28.116Z,8.80
